Time;durP1;ratioP1;P1;durP2;ratioP2;P2;SDS_P1;SDS_P2;PMS_P1;PMS_P2;Temp;Humidity;BMP_temperature;BMP_pressure;BME280_temperature;BME280_humidity;BME280_pressure;Samples;Min_cycle;Max_cycle;Signal;HPM_P1;HPM_P2
2023/08/12 00:03:08;;;;;;;2.13;0.82;;;27.50;75.40;;;;;;10488942;28;20129;-36
2023/08/12 00:08:10;;;;;;;1.30;0.63;;;27.40;75.40;;;;;;10484878;28;20053;-40
2023/08/12 00:13:17;;;;;;;0.90;0.60;;;27.40;75.50;;;;;;10489422;28;20048;-32
2023/08/12 00:18:19;;;;;;;1.75;0.70;;;27.50;75.60;;;;;;10486719;28;20088;-37
2023/08/12 00:23:20;;;;;;;1.08;0.65;;;27.40;75.50;;;;;;10483235;28;20620;-34
2023/08/12 00:28:24;;;;;;;0.98;0.68;;;27.40;75.60;;;;;;10485164;28;20086;-31
2023/08/12 00:33:26;;;;;;;3.88;0.77;;;27.40;75.50;;;;;;10484559;28;20089;-34
2023/08/12 00:38:29;;;;;;;1.17;0.65;;;27.40;75.50;;;;;;10491830;28;20140;-39
2023/08/12 00:43:32;;;;;;;1.58;0.68;;;27.30;75.50;;;;;;10484211;28;20056;-36
2023/08/12 00:48:34;;;;;;;1.10;0.80;;;27.30;75.50;;;;;;10491502;28;20056;-32
2023/08/12 00:53:37;;;;;;;1.27;0.63;;;27.30;75.60;;;;;;10491151;28;20143;-35
2023/08/12 00:58:41;;;;;;;1.70;0.60;;;27.30;76.30;;;;;;10484810;28;20139;-29
2023/08/12 01:03:43;;;;;;;2.35;0.93;;;27.30;75.70;;;;;;10489096;28;20079;-35
2023/08/12 01:08:45;;;;;;;1.20;0.52;;;27.30;75.70;;;;;;10490334;28;20084;-35
2023/08/12 01:14:03;;;;;;;0.93;0.60;;;27.30;75.80;;;;;;10476677;28;20070;-38
2023/08/12 01:19:07;;;;;;;1.70;0.60;;;27.30;75.90;;;;;;10490939;28;20061;-37
2023/08/12 01:24:10;;;;;;;1.38;0.60;;;27.30;75.90;;;;;;10485674;28;20115;-35
2023/08/12 01:29:12;;;;;;;2.03;0.70;;;27.20;75.80;;;;;;10468227;28;20136;-35
2023/08/12 01:34:21;;;;;;;3.42;0.70;;;27.20;75.90;;;;;;10478015;28;20059;-38
2023/08/12 01:39:28;;;;;;;2.75;0.80;;;27.20;75.90;;;;;;10482671;28;20044;-42
2023/08/12 01:44:30;;;;;;;2.25;1.15;;;27.20;76.00;;;;;;10477510;28;20072;-37
2023/08/12 01:49:32;;;;;;;1.58;0.70;;;27.20;75.90;;;;;;10489916;28;20087;-35
2023/08/12 01:54:35;;;;;;;3.20;0.90;;;27.20;75.90;;;;;;10472208;28;20045;-37
2023/08/12 01:59:37;;;;;;;2.83;0.70;;;27.20;76.10;;;;;;10465554;28;20098;-37
2023/08/12 02:04:42;;;;;;;2.85;0.82;;;27.20;76.10;;;;;;10472115;28;20052;-40
2023/08/12 02:09:46;;;;;;;2.10;0.63;;;27.10;76.30;;;;;;10479799;28;20067;-36
2023/08/12 02:14:48;;;;;;;1.95;0.80;;;27.10;76.30;;;;;;10487478;28;20133;-34
2023/08/12 02:19:49;;;;;;;1.00;0.60;;;27.10;76.30;;;;;;10490808;28;20098;-40
2023/08/12 02:24:53;;;;;;;1.33;0.60;;;27.10;76.40;;;;;;10497073;28;20036;-39
2023/08/12 02:29:55;;;;;;;3.40;1.10;;;27.00;76.70;;;;;;10493217;28;20074;-40
2023/08/12 02:34:56;;;;;;;2.58;1.52;;;27.00;76.70;;;;;;10488973;28;20110;-33
2023/08/12 02:40:00;;;;;;;0.85;0.60;;;27.00;77.00;;;;;;10487580;28;20102;-39
2023/08/12 02:45:01;;;;;;;3.92;0.57;;;27.00;77.10;;;;;;10486409;28;20105;-36
2023/08/12 02:50:03;;;;;;;2.13;0.73;;;27.00;77.10;;;;;;10476363;28;20440;-34
2023/08/12 02:55:07;;;;;;;1.17;0.75;;;26.90;77.50;;;;;;10458820;28;20161;-34
2023/08/12 03:15:29;;;;;;;2.72;0.90;;;26.80;77.70;;;;;;10480991;27;2091408;-33
2023/08/12 03:20:31;;;;;;;2.80;0.70;;;26.80;78.40;;;;;;10524400;28;20443;-36
2023/08/12 03:25:33;;;;;;;1.95;1.02;;;26.90;78.20;;;;;;10518589;28;20770;-35
2023/08/12 03:30:36;;;;;;;5.13;1.77;;;26.90;78.20;;;;;;10510377;28;20052;-35
2023/08/12 03:35:38;;;;;;;1.15;0.70;;;26.80;79.10;;;;;;10509564;28;20140;-34
2023/08/12 03:40:40;;;;;;;2.78;0.70;;;26.90;78.40;;;;;;10525267;28;20127;-32
2023/08/12 03:45:44;;;;;;;1.60;0.98;;;26.90;78.20;;;;;;10522270;28;20083;-36
2023/08/12 03:50:47;;;;;;;1.42;0.88;;;26.90;78.20;;;;;;10520525;28;20393;-35
2023/08/12 03:55:49;;;;;;;1.88;0.80;;;26.90;78.20;;;;;;10520784;28;20056;-37
2023/08/12 04:00:52;;;;;;;1.23;0.73;;;26.90;78.40;;;;;;10509157;28;20143;-33
2023/08/12 04:05:54;;;;;;;1.92;0.98;;;26.90;78.30;;;;;;10516001;28;20097;-36
2023/08/12 04:10:56;;;;;;;2.03;1.05;;;26.90;78.30;;;;;;10523781;28;20084;-32
2023/08/12 04:15:59;;;;;;;2.30;0.98;;;26.90;78.40;;;;;;10518898;28;20105;-37
2023/08/12 04:21:01;;;;;;;2.25;1.13;;;26.90;78.50;;;;;;10521274;28;20131;-35
2023/08/12 04:26:03;;;;;;;3.33;1.58;;;26.90;78.60;;;;;;10498838;28;20044;-32
2023/08/12 04:31:07;;;;;;;2.83;1.10;;;26.90;78.90;;;;;;10491497;28;20829;-39
2023/08/12 04:36:09;;;;;;;4.05;1.10;;;26.80;79.40;;;;;;10487413;28;20048;-33
2023/08/12 04:41:11;;;;;;;2.28;1.23;;;26.80;79.40;;;;;;10481863;28;20041;-32
2023/08/12 04:46:14;;;;;;;3.90;1.17;;;26.90;79.70;;;;;;10476258;28;20106;-34
2023/08/12 04:51:16;;;;;;;2.92;1.55;;;26.90;80.10;;;;;;10475937;28;20087;-36
2023/08/12 04:56:18;;;;;;;3.85;1.20;;;26.90;80.40;;;;;;10485586;28;20093;-32
2023/08/12 05:01:21;;;;;;;3.75;1.40;;;26.90;80.40;;;;;;10481056;28;20053;-32
2023/08/12 05:06:24;;;;;;;3.30;1.75;;;26.90;80.70;;;;;;10478408;28;20401;-35
2023/08/12 05:11:26;;;;;;;3.22;1.73;;;26.90;81.00;;;;;;10480414;28;20055;-40
2023/08/12 05:16:29;;;;;;;3.67;2.25;;;26.80;81.50;;;;;;10482030;28;20052;-37
2023/08/12 05:21:31;;;;;;;2.15;1.83;;;26.80;81.80;;;;;;10475300;28;20041;-37
2023/08/12 05:26:34;;;;;;;4.88;1.98;;;26.80;82.10;;;;;;10475957;28;20041;-32
2023/08/12 05:31:37;;;;;;;3.50;1.63;;;26.80;82.20;;;;;;10481290;28;20505;-32
2023/08/12 05:36:39;;;;;;;2.15;1.50;;;26.80;82.60;;;;;;10477095;28;20519;-37
2023/08/12 05:41:41;;;;;;;4.25;1.70;;;26.70;82.80;;;;;;10482710;28;20497;-38
2023/08/12 05:46:44;;;;;;;2.35;1.50;;;26.80;83.30;;;;;;10488409;28;20056;-32
2023/08/12 05:51:46;;;;;;;2.38;1.40;;;26.80;83.80;;;;;;10482511;28;20092;-46
2023/08/12 05:56:48;;;;;;;3.88;1.60;;;26.80;84.00;;;;;;10480851;28;20174;-32
2023/08/12 06:01:51;;;;;;;8.45;1.98;;;26.80;84.20;;;;;;10478148;28;20501;-32
2023/08/12 06:06:53;;;;;;;8.48;1.77;;;26.80;84.40;;;;;;10485315;28;20376;-34
2023/08/12 06:11:55;;;;;;;5.47;1.58;;;26.80;84.80;;;;;;10478553;28;20157;-36
2023/08/12 06:16:58;;;;;;;5.72;2.60;;;26.80;85.10;;;;;;10487629;28;20531;-36
2023/08/12 06:22:00;;;;;;;1.80;1.60;;;26.70;85.60;;;;;;10483739;28;20053;-36
2023/08/12 06:27:02;;;;;;;3.78;2.90;;;26.50;88.90;;;;;;10473842;28;20069;-38
2023/08/12 06:32:06;;;;;;;2.08;1.58;;;25.50;91.80;;;;;;10481662;28;20044;-37
2023/08/12 06:37:07;;;;;;;1.95;1.65;;;24.10;97.50;;;;;;10478807;28;20056;-40
2023/08/12 06:42:09;;;;;;;5.78;1.65;;;25.50;93.00;;;;;;10474261;28;20044;-40
2023/08/12 06:47:12;;;;;;;;;;;24.30;95.90;;;;;;10480581;28;20476;-38
2023/08/12 06:52:14;;;;;;;4.22;1.23;;;24.10;96.80;;;;;;10478050;28;20022;-39
2023/08/12 06:57:16;;;;;;;3.85;1.33;;;24.90;95.90;;;;;;10478753;28;20075;-35
2023/08/12 07:02:19;;;;;;;;;;;23.80;95.60;;;;;;10471021;28;20139;-30
2023/08/12 07:07:21;;;;;;;3.80;1.33;;;25.30;94.50;;;;;;10459955;28;20076;-34
2023/08/12 07:12:22;;;;;;;;;;;24.80;95.70;;;;;;10466576;28;20048;-33
2023/08/12 07:17:26;;;;;;;2.78;0.85;;;25.80;91.60;;;;;;10466216;28;19960;-35
2023/08/12 07:22:28;;;;;;;3.05;0.95;;;25.40;92.70;;;;;;10449196;28;21030;-35
2023/08/12 07:27:30;;;;;;;4.50;1.48;;;25.50;93.00;;;;;;10470329;28;20531;-42
2023/08/12 07:32:33;;;;;;;2.95;0.80;;;25.40;92.40;;;;;;10480789;28;20080;-39
2023/08/12 07:37:35;;;;;;;3.25;0.80;;;26.10;90.60;;;;;;10460019;28;20053;-39
2023/08/12 07:42:37;;;;;;;5.95;1.10;;;26.30;89.00;;;;;;10468163;28;20518;-34
2023/08/12 07:47:40;;;;;;;3.95;1.10;;;26.10;90.10;;;;;;10487213;28;20053;-35
2023/08/12 07:52:42;;;;;;;3.97;0.75;;;26.30;88.30;;;;;;10472970;28;20095;-34
2023/08/12 07:57:45;;;;;;;2.60;1.20;;;26.40;87.60;;;;;;10458395;28;20080;-34
2023/08/12 08:02:49;;;;;;;2.60;0.93;;;26.50;86.40;;;;;;10487336;28;20131;-35
2023/08/12 08:07:51;;;;;;;6.25;1.20;;;26.50;85.60;;;;;;10485393;28;20091;-35
2023/08/12 08:12:53;;;;;;;6.03;1.33;;;26.50;85.10;;;;;;10481095;28;20088;-37
2023/08/12 08:17:56;;;;;;;5.45;0.90;;;26.50;85.30;;;;;;10483743;28;20595;-34
2023/08/12 08:22:58;;;;;;;5.32;1.42;;;26.50;85.10;;;;;;10470747;28;20143;-34
2023/08/12 08:27:59;;;;;;;4.72;0.90;;;25.30;88.70;;;;;;10495876;28;20102;-31
2023/08/12 08:33:03;;;;;;;4.80;0.93;;;26.40;86.30;;;;;;10489089;28;20044;-45
2023/08/12 08:38:05;;;;;;;4.07;0.90;;;26.40;85.50;;;;;;10486791;28;20078;-36
2023/08/12 08:43:09;;;;;;;6.55;1.33;;;26.40;85.30;;;;;;10476790;28;20040;-32
2023/08/12 08:48:12;;;;;;;7.25;1.27;;;25.10;90.50;;;;;;10479382;28;20048;-34
2023/08/12 08:53:16;;;;;;;5.20;1.20;;;24.90;81.30;;;;;;10482635;28;20130;-38
2023/08/12 08:58:19;;;;;;;5.40;0.98;;;25.80;89.80;;;;;;10473149;28;20079;-33
2023/08/12 09:03:22;;;;;;;10.05;1.35;;;25.90;88.20;;;;;;10483995;28;20072;-46
2023/08/12 09:08:26;;;;;;;4.20;1.48;;;25.00;90.60;;;;;;10498142;28;20048;-27
2023/08/12 09:13:29;;;;;;;7.03;1.40;;;25.00;91.60;;;;;;10477569;28;20080;-35
2023/08/12 09:18:32;;;;;;;9.32;1.40;;;25.20;89.10;;;;;;10482618;28;20067;-37
2023/08/12 09:23:36;;;;;;;6.40;1.48;;;25.20;91.10;;;;;;10484025;28;20072;-35
2023/08/12 09:28:38;;;;;;;4.25;1.20;;;23.30;94.40;;;;;;10473227;28;20099;-39
2023/08/12 09:33:41;;;;;;;5.95;1.33;;;24.10;93.70;;;;;;10474755;28;20102;-33
2023/08/12 09:38:43;;;;;;;8.23;1.52;;;24.90;89.80;;;;;;10464257;28;20053;-38
2023/08/12 09:43:45;;;;;;;5.15;1.20;;;24.40;92.90;;;;;;10478916;28;20044;-40
2023/08/12 09:48:50;;;;;;;3.42;1.13;;;24.90;91.70;;;;;;10476351;28;20122;-37
2023/08/12 09:53:53;;;;;;;5.85;2.00;;;24.50;92.70;;;;;;10487024;28;20500;-40
2023/08/12 09:58:56;;;;;;;6.82;1.50;;;24.80;91.80;;;;;;10481010;28;20120;-34
2023/08/12 10:03:59;;;;;;;6.80;1.75;;;24.70;92.10;;;;;;10452507;28;20045;-39
2023/08/12 10:09:03;;;;;;;7.38;1.55;;;23.20;96.20;;;;;;10484046;28;20428;-37
2023/08/12 10:14:05;;;;;;;7.22;1.55;;;22.80;96.90;;;;;;10479723;28;20155;-38
2023/08/12 10:19:12;;;;;;;4.72;1.85;;;23.80;93.80;;;;;;10488042;28;20045;-35
2023/08/12 10:24:17;;;;;;;6.90;1.52;;;24.50;92.70;;;;;;10472553;28;20052;-38
2023/08/12 10:29:18;;;;;;;7.63;1.50;;;24.80;91.70;;;;;;10475240;28;20045;-34
2023/08/12 10:34:23;;;;;;;9.20;1.52;;;23.60;93.80;;;;;;10479218;28;20088;-33
2023/08/12 10:39:28;;;;;;;8.50;1.40;;;23.70;93.10;;;;;;10481280;28;20044;-33
2023/08/12 10:44:40;;;;;;;6.57;1.67;;;24.30;92.60;;;;;;10480577;28;20043;-35
2023/08/12 10:49:48;;;;;;;4.95;1.52;;;23.60;95.90;;;;;;10479672;28;20068;-33
2023/08/12 10:54:50;;;;;;;10.57;2.10;;;23.40;97.20;;;;;;10485473;28;20060;-34
2023/08/12 10:59:53;;;;;;;;;;;23.30;94.20;;;;;;10483346;28;20489;-33
2023/08/12 11:04:58;;;;;;;7.03;1.40;;;22.70;98.40;;;;;;10486440;28;20011;-36
2023/08/12 11:10:04;;;;;;;8.93;2.40;;;24.40;93.30;;;;;;10482579;28;20440;-42
2023/08/12 11:15:07;;;;;;;14.70;1.85;;;22.90;96.70;;;;;;10474616;28;20175;-37
2023/08/12 11:20:12;;;;;;;9.95;1.58;;;23.40;94.80;;;;;;10477498;28;20254;-37
2023/08/12 11:25:15;;;;;;;8.30;2.78;;;23.30;94.80;;;;;;10478226;28;20094;-36
2023/08/12 11:30:18;;;;;;;13.82;2.00;;;24.30;92.20;;;;;;10484834;28;20387;-39
2023/08/12 11:35:23;;;;;;;5.95;1.45;;;24.30;93.60;;;;;;10480192;28;20152;-33
2023/08/12 11:40:27;;;;;;;5.22;1.70;;;24.20;94.20;;;;;;10493708;28;20075;-36
2023/08/12 11:45:29;;;;;;;8.50;1.77;;;24.20;93.60;;;;;;10492342;28;20060;-32
2023/08/12 11:50:32;;;;;;;13.32;1.85;;;23.70;95.00;;;;;;10488851;28;20048;-40
2023/08/12 11:55:34;;;;;;;7.82;2.10;;;23.30;94.70;;;;;;10501241;28;20047;-38
2023/08/12 12:00:36;;;;;;;8.02;2.22;;;25.00;90.80;;;;;;10483140;28;20140;-36
2023/08/12 12:05:39;;;;;;;;;;;23.70;93.00;;;;;;10493220;28;20048;-35
2023/08/12 12:10:41;;;;;;;6.22;1.45;;;23.10;93.90;;;;;;10481827;28;20435;-39
2023/08/12 12:15:44;;;;;;;7.43;1.95;;;24.40;93.00;;;;;;10491178;28;20075;-36
2023/08/12 12:20:57;;;;;;;13.23;2.03;;;24.30;90.80;;;;;;10483426;28;20497;-36
2023/08/12 12:26:00;;;;;;;10.15;2.15;;;23.40;93.10;;;;;;10485896;28;20077;-31
2023/08/12 12:31:02;;;;;;;14.95;2.15;;;23.90;92.70;;;;;;10490011;28;20076;-34
2023/08/12 12:36:05;;;;;;;;;;;23.80;94.10;;;;;;10481472;28;20049;-34
2023/08/12 12:41:07;;;;;;;9.75;1.80;;;24.30;89.90;;;;;;10491450;28;19974;-41
2023/08/12 12:46:09;;;;;;;;;;;24.60;90.40;;;;;;10491402;28;20064;-36
2023/08/12 12:51:12;;;;;;;8.48;2.28;;;23.90;90.00;;;;;;10500015;28;20008;-35
2023/08/12 12:56:14;;;;;;;10.55;2.13;;;24.30;90.60;;;;;;10477753;28;20039;-35
2023/08/12 13:01:16;;;;;;;13.60;2.05;;;24.50;88.30;;;;;;10491248;28;20044;-37
2023/08/12 13:06:21;;;;;;;;;;;24.90;89.20;;;;;;10482654;28;20041;-37
2023/08/12 13:11:23;;;;;;;15.68;2.05;;;25.30;85.00;;;;;;10504276;28;19965;-33
2023/08/12 13:16:24;;;;;;;;;;;25.40;84.20;;;;;;10486935;28;20114;-38
2023/08/12 13:21:28;;;;;;;8.20;2.00;;;25.10;84.00;;;;;;10495052;28;19966;-36
2023/08/12 13:26:30;;;;;;;24.77;2.78;;;25.60;84.90;;;;;;10486458;28;20064;-38
2023/08/12 13:31:32;;;;;;;10.25;2.17;;;25.30;78.00;;;;;;10472835;28;20110;-37
2023/08/12 13:36:35;;;;;;;12.15;2.05;;;25.70;79.20;;;;;;10472639;28;20048;-36
2023/08/12 13:41:36;;;;;;;7.22;1.60;;;25.00;81.30;;;;;;10476737;28;20073;-39
2023/08/12 13:46:38;;;;;;;10.27;2.30;;;25.70;83.20;;;;;;10488125;28;20152;-37
2023/08/12 13:51:42;;;;;;;12.45;2.35;;;25.30;74.80;;;;;;10469003;28;20059;-34
2023/08/12 13:56:43;;;;;;;12.95;2.22;;;25.10;79.50;;;;;;10466847;28;20048;-36
2023/08/12 14:01:45;;;;;;;10.75;2.20;;;25.50;73.40;;;;;;10458402;28;20060;-35
2023/08/12 14:06:49;;;;;;;11.52;2.47;;;25.70;74.90;;;;;;10499023;28;20114;-43
2023/08/12 14:11:50;;;;;;;17.45;3.00;;;26.20;72.20;;;;;;10484345;28;20056;-36
2023/08/12 14:16:53;;;;;;;7.40;1.63;;;26.20;72.20;;;;;;10492415;28;20157;-39
2023/08/12 14:21:56;;;;;;;14.98;2.05;;;26.20;74.40;;;;;;10479916;28;20040;-34
2023/08/12 14:26:57;;;;;;;8.38;2.03;;;25.50;78.30;;;;;;10482617;28;20083;-35
2023/08/12 14:31:59;;;;;;;16.10;2.55;;;25.90;78.40;;;;;;10468533;28;20186;-42
2023/08/12 14:37:03;;;;;;;14.95;1.90;;;25.70;74.20;;;;;;10483039;28;20111;-42
2023/08/12 14:42:08;;;;;;;15.23;2.42;;;26.00;70.30;;;;;;10473346;28;20053;-38
2023/08/12 14:47:10;;;;;;;11.50;2.97;;;25.30;83.00;;;;;;10483940;28;20041;-42
2023/08/12 14:52:18;;;;;;;9.68;2.38;;;26.10;70.60;;;;;;10467506;28;20084;-41
2023/08/12 14:57:20;;;;;;;9.43;2.17;;;26.50;71.40;;;;;;10487185;28;20045;-39
2023/08/12 15:02:23;;;;;;;12.98;3.40;;;26.00;71.40;;;;;;10475799;28;20045;-36
2023/08/12 15:07:26;;;;;;;9.00;1.90;;;26.10;63.40;;;;;;10484609;28;20143;-33
2023/08/12 15:12:28;;;;;;;11.13;1.80;;;26.20;68.30;;;;;;10484802;28;20084;-32
2023/08/12 15:17:30;;;;;;;8.75;2.22;;;26.00;76.30;;;;;;10484984;28;20493;-36
2023/08/12 15:22:33;;;;;;;8.57;1.70;;;27.00;64.40;;;;;;10484800;28;20101;-36
2023/08/12 15:27:35;;;;;;;11.63;2.83;;;27.00;69.80;;;;;;10482951;28;20041;-34
2023/08/12 15:32:38;;;;;;;9.05;2.30;;;26.90;71.90;;;;;;10480347;28;20076;-36
2023/08/12 15:37:41;;;;;;;11.35;2.67;;;26.50;70.40;;;;;;10478716;28;20053;-35
2023/08/12 15:42:46;;;;;;;9.23;2.00;;;26.10;75.60;;;;;;10482995;28;20110;-32
2023/08/12 15:47:48;;;;;;;11.75;2.85;;;26.50;78.80;;;;;;10477543;28;20135;-36
2023/08/12 15:52:51;;;;;;;12.95;1.92;;;28.40;79.40;;;;;;10478445;28;20076;-34
2023/08/12 15:57:53;;;;;;;13.55;2.92;;;28.50;69.30;;;;;;10474688;28;20045;-36
2023/08/12 16:02:55;;;;;;;18.35;2.85;;;27.80;73.80;;;;;;10478136;28;20405;-33
2023/08/12 16:07:58;;;;;;;10.45;2.22;;;27.00;72.50;;;;;;10486865;28;20122;-33
2023/08/12 16:13:00;;;;;;;17.33;2.75;;;27.00;67.90;;;;;;10465395;28;20477;-36
2023/08/12 16:18:02;;;;;;;14.90;3.08;;;27.50;81.10;;;;;;10483867;28;20739;-35
2023/08/12 16:23:05;;;;;;;11.20;2.28;;;27.30;72.20;;;;;;10471933;28;20074;-40
2023/08/12 16:28:07;;;;;;;10.05;2.70;;;26.90;71.60;;;;;;10490629;28;20048;-34
2023/08/12 16:33:09;;;;;;;13.63;2.95;;;27.80;66.70;;;;;;10487913;28;20478;-37
2023/08/12 16:38:12;;;;;;;13.18;3.50;;;27.90;74.60;;;;;;10482033;28;20044;-31
2023/08/12 16:43:14;;;;;;;19.42;3.05;;;27.00;65.70;;;;;;10478780;28;20455;-36
2023/08/12 16:48:16;;;;;;;14.85;5.38;;;26.90;66.70;;;;;;10488352;28;20049;-34
2023/08/12 16:53:19;;;;;;;15.98;4.45;;;26.90;66.80;;;;;;10474003;28;20045;-32
2023/08/12 16:58:21;;;;;;;15.93;3.22;;;26.70;66.70;;;;;;10478609;28;20775;-32
2023/08/12 17:03:23;;;;;;;17.98;3.53;;;27.30;68.30;;;;;;10488755;28;20078;-36
2023/08/12 17:08:27;;;;;;;17.63;3.13;;;27.20;83.00;;;;;;10476974;28;20047;-35
2023/08/12 17:13:28;;;;;;;15.50;2.67;;;27.00;73.50;;;;;;10486880;28;20061;-32
2023/08/12 17:18:30;;;;;;;13.93;2.20;;;26.90;74.30;;;;;;10473497;28;20049;-37
2023/08/12 17:23:34;;;;;;;12.60;2.08;;;27.10;79.50;;;;;;10490405;28;20048;-40
2023/08/12 17:28:35;;;;;;;11.90;2.55;;;26.60;67.00;;;;;;10480426;28;20056;-36
2023/08/12 17:33:37;;;;;;;12.10;2.67;;;25.60;69.50;;;;;;10473704;28;20079;-34
2023/08/12 17:38:40;;;;;;;17.85;3.00;;;25.80;80.00;;;;;;10477972;28;20409;-37
2023/08/12 17:43:43;;;;;;;18.67;4.43;;;26.30;71.10;;;;;;10477194;28;20168;-36
2023/08/12 17:48:45;;;;;;;13.93;2.50;;;25.90;77.80;;;;;;10478714;28;20474;-32
2023/08/12 17:53:48;;;;;;;13.02;2.55;;;25.50;72.70;;;;;;10473455;28;20049;-34
2023/08/12 17:58:51;;;;;;;13.07;2.55;;;25.00;77.30;;;;;;10478096;28;20144;-35
2023/08/12 18:03:53;;;;;;;10.10;2.67;;;23.80;88.50;;;;;;10485847;28;20570;-33
2023/08/12 18:08:57;;;;;;;15.90;3.03;;;24.90;91.60;;;;;;10488482;28;20103;-32
2023/08/12 18:13:59;;;;;;;15.30;3.22;;;24.60;90.70;;;;;;10484048;28;20052;-35
2023/08/12 18:19:00;;;;;;;15.90;2.50;;;23.70;93.60;;;;;;10492181;28;20070;-35
2023/08/12 18:24:04;;;;;;;;;;;25.50;91.40;;;;;;10477561;28;20088;-40
2023/08/12 18:29:05;;;;;;;17.30;2.92;;;23.30;90.10;;;;;;10474313;28;20289;-41
2023/08/12 18:34:07;;;;;;;13.95;2.10;;;22.70;99.90;;;;;;10478920;28;20409;-40
2023/08/12 18:39:11;;;;;;;9.60;2.33;;;22.30;92.60;;;;;;10487721;28;20044;-35
2023/08/12 18:44:13;;;;;;;15.38;2.25;;;22.00;99.90;;;;;;10475931;28;20095;-32
2023/08/12 18:49:15;;;;;;;;;;;22.20;99.90;;;;;;10489561;28;20641;-35
2023/08/12 18:54:18;;;;;;;9.67;1.63;;;22.30;94.50;;;;;;10488635;28;19974;-34
2023/08/12 18:59:20;;;;;;;13.30;2.10;;;22.40;90.90;;;;;;10482172;28;20497;-34
2023/08/12 19:04:22;;;;;;;12.63;2.42;;;23.00;98.60;;;;;;10483451;28;20089;-34
2023/08/12 19:09:26;;;;;;;13.25;2.53;;;22.30;87.90;;;;;;10488169;28;20090;-36
2023/08/12 19:14:28;;;;;;;16.35;2.15;;;21.70;99.90;;;;;;10490098;28;20048;-35
2023/08/12 19:19:31;;;;;;;10.00;1.98;;;21.80;99.00;;;;;;10487093;28;20509;-33
2023/08/12 19:24:34;;;;;;;9.48;1.95;;;22.70;94.10;;;;;;10464578;28;20095;-38
2023/08/12 19:29:36;;;;;;;8.43;1.67;;;22.60;91.70;;;;;;10471599;28;20068;-40
2023/08/12 19:34:38;;;;;;;12.23;1.85;;;22.20;98.00;;;;;;10472753;28;20037;-33
2023/08/12 19:39:41;;;;;;;11.63;2.15;;;22.60;90.70;;;;;;10484832;28;20127;-38
2023/08/12 19:44:43;;;;;;;15.70;2.22;;;22.00;97.60;;;;;;10480632;28;20130;-35
2023/08/12 19:49:45;;;;;;;;;;;23.30;98.40;;;;;;10479574;28;20129;-34
2023/08/12 19:54:48;;;;;;;12.03;1.73;;;23.10;95.10;;;;;;10478629;28;20021;-37
2023/08/12 19:59:50;;;;;;;6.22;1.40;;;22.70;99.60;;;;;;10492672;28;20888;-32
2023/08/12 20:04:52;;;;;;;11.48;1.40;;;22.80;99.90;;;;;;10489193;28;20719;-32
2023/08/12 20:09:56;;;;;;;9.50;2.05;;;23.60;97.30;;;;;;10481302;28;20059;-33
2023/08/12 20:14:59;;;;;;;9.23;2.15;;;23.10;93.40;;;;;;10485768;28;20110;-32
2023/08/12 20:20:01;;;;;;;13.40;1.80;;;22.50;97.10;;;;;;10487293;28;20084;-35
2023/08/12 20:25:05;;;;;;;11.82;1.77;;;23.20;94.00;;;;;;10486650;28;20159;-33
2023/08/12 20:30:07;;;;;;;13.98;2.75;;;22.50;95.10;;;;;;10493510;28;20375;-38
2023/08/12 20:35:09;;;;;;;14.93;2.30;;;22.40;99.90;;;;;;10490610;28;20059;-38
2023/08/12 20:40:13;;;;;;;;;;;21.30;98.40;;;;;;10489775;28;20087;-34
2023/08/12 20:45:15;;;;;;;12.05;2.47;;;22.30;96.20;;;;;;10489102;28;20385;-38
2023/08/12 20:50:17;;;;;;;13.02;2.28;;;22.10;99.80;;;;;;10487902;28;20037;-35
2023/08/12 20:55:20;;;;;;;5.97;1.73;;;22.20;97.40;;;;;;10485843;28;20049;-39
2023/08/12 21:00:22;;;;;;;16.00;2.67;;;23.10;94.00;;;;;;10476620;28;20044;-33
2023/08/12 21:05:24;;;;;;;10.02;2.08;;;21.80;98.50;;;;;;10476683;28;20072;-35
2023/08/12 21:10:27;;;;;;;17.40;2.58;;;22.30;96.50;;;;;;10484403;28;20048;-32
2023/08/12 21:15:29;;;;;;;9.90;2.00;;;22.90;94.20;;;;;;10486094;28;20052;-37
2023/08/12 21:20:31;;;;;;;;;;;23.60;90.90;;;;;;10488995;28;20083;-31
2023/08/12 21:25:34;;;;;;;12.57;2.27;;;22.60;94.00;;;;;;10481402;28;19959;-32
2023/08/12 21:30:37;;;;;;;12.77;2.45;;;23.60;94.10;;;;;;10491127;28;20040;-32
2023/08/12 21:35:39;;;;;;;18.25;2.67;;;21.80;98.20;;;;;;10477697;28;20560;-43
2023/08/12 21:40:43;;;;;;;10.85;1.77;;;21.60;99.90;;;;;;10466165;28;20041;-33
2023/08/12 21:45:45;;;;;;;14.00;1.98;;;22.90;96.30;;;;;;10466104;28;20052;-35
2023/08/12 21:50:47;;;;;;;13.60;1.50;;;22.70;98.40;;;;;;10490201;28;20079;-36
2023/08/12 21:55:50;;;;;;;14.55;2.15;;;22.80;96.40;;;;;;10473141;28;20052;-35
2023/08/12 22:00:55;;;;;;;21.83;3.50;;;23.10;93.30;;;;;;10485079;28;20479;-37
2023/08/12 22:05:57;;;;;;;24.67;3.50;;;22.90;94.60;;;;;;10487777;28;20061;-36
2023/08/12 22:11:00;;;;;;;25.88;3.03;;;22.20;98.80;;;;;;10486637;28;20423;-35
2023/08/12 22:16:03;;;;;;;16.13;2.85;;;22.10;98.70;;;;;;10486836;28;20048;-35
2023/08/12 22:21:05;;;;;;;13.65;2.17;;;22.80;96.80;;;;;;10482632;28;20045;-32
2023/08/12 22:26:08;;;;;;;9.75;1.92;;;23.50;94.50;;;;;;10480789;28;20052;-30
2023/08/12 22:31:10;;;;;;;12.38;2.45;;;22.60;97.20;;;;;;10474716;28;20448;-32
2023/08/12 22:36:12;;;;;;;21.85;2.80;;;23.30;94.40;;;;;;10480561;28;20520;-36
2023/08/12 22:41:15;;;;;;;12.60;2.03;;;21.70;98.10;;;;;;10483156;28;20072;-34
2023/08/12 22:46:17;;;;;;;17.05;2.78;;;21.70;99.40;;;;;;10481398;28;20066;-33
2023/08/12 22:51:20;;;;;;;12.80;2.92;;;21.80;99.90;;;;;;10482549;28;20552;-33
2023/08/12 22:56:24;;;;;;;15.95;2.17;;;22.60;97.30;;;;;;10479694;28;20523;-36
2023/08/12 23:01:25;;;;;;;17.23;2.25;;;21.70;99.90;;;;;;10472132;28;20535;-36
2023/08/12 23:06:27;;;;;;;10.70;2.03;;;21.50;99.90;;;;;;10469338;28;20044;-35
2023/08/12 23:11:31;;;;;;;14.18;2.83;;;22.30;99.30;;;;;;10481930;28;20099;-38
2023/08/12 23:16:32;;;;;;;16.25;2.35;;;21.60;99.90;;;;;;10480315;28;20132;-36
2023/08/12 23:21:34;;;;;;;14.30;2.50;;;22.10;99.10;;;;;;10485907;28;20048;-38
2023/08/12 23:26:38;;;;;;;15.57;2.40;;;21.40;99.90;;;;;;10482091;28;20036;-35
2023/08/12 23:31:40;;;;;;;9.30;2.30;;;21.40;99.90;;;;;;10490744;28;20044;-32
2023/08/12 23:36:42;;;;;;;10.70;1.90;;;23.30;93.20;;;;;;10487810;28;20048;-30
2023/08/12 23:41:45;;;;;;;7.93;1.88;;;23.20;94.60;;;;;;10487834;28;20173;-40
2023/08/12 23:46:49;;;;;;;12.27;1.98;;;24.20;91.10;;;;;;10484790;28;20053;-33
2023/08/12 23:51:50;;;;;;;9.88;1.98;;;24.00;90.60;;;;;;10500737;28;20094;-33
2023/08/12 23:56:54;;;;;;;;;;;23.50;92.30;;;;;;10484736;28;20072;-31
